METAR AND TAF INFORMATION
METAR FOR UAII
ADDS - METARS form results

(2027 UTC 21 June 2021)
Data provider http://aviationweather.gov/metar/data/
 
METAR text: UAII 212000Z 13003MPS CAVOK 22/04 Q1012 R10/0///70 NOSIG RMK QFE724/0965
Conditions at: UAII (CIMKENT , KZ) observed 2000 UTC 21 June 2021
Temperature: 22.0°C (72°F)
Dewpoint: 4.0°C (39°F) [RH = 31%]
Pressure (altimeter): 29.88 inches Hg (1012.0 mb)
Winds: from the SE (130 degrees) at 7 MPH (6 knots; 3.1 m/s)
Visibility: 6 or more miles (10+ km)
Ceiling: ceiling and visibility are OK
Clouds: unknown
Weather: no significant weather observed at this time

METAR text: UAII 211930Z 10003MPS CAVOK 22/04 Q1012 R10/0///70 NOSIG RMK QFE724/0966
Conditions at: UAII (CIMKENT , KZ) observed 1930 UTC 21 June 2021
Temperature: 22.0°C (72°F)
Dewpoint: 4.0°C (39°F) [RH = 31%]
Pressure (altimeter): 29.88 inches Hg (1012.0 mb)
Winds: from the E (100 degrees) at 7 MPH (6 knots; 3.1 m/s)
Visibility: 6 or more miles (10+ km)
Ceiling: ceiling and visibility are OK
Clouds: unknown
Weather: no significant weather observed at this time

Forecast for: UAII (CIMKENT , KZ)
Text: TAF UAII 211701Z 2118/2218 17003G08MPS 7000 NSC TX33/2210Z TN16/2200Z
Forecast period: 1800 UTC 21 June 2021 to 1800 UTC 22 June 2021
Forecast type: FROM: standard forecast or significant change
Winds: from the S (170 degrees) at 7 MPH (6 knots; 3.1 m/s)
gusting to 18 MPH (16 knots; 8.2 m/s)
Visibility: 4 miles (7 km)
Ceiling: unknown
Clouds: missing
Weather: no significant weather forecast for this period
Text: TEMPO 2118/2204 13003G08MPS
Forecast period: 1800 UTC 21 June 2021 to 0400 UTC 22 June 2021
Forecast type: TEMPORARY: The following changes expected for less than half the time period
Winds: from the SE (130 degrees) at 7 MPH (6 knots; 3.1 m/s)
gusting to 18 MPH (16 knots; 8.2 m/s)
Visibility: missing
Ceiling: unknown
Clouds: missing
Weather: no significant weather forecast for this period
Text: TEMPO 2204/2215 29007G12MPS
Forecast period: 0400 to 1500 UTC 22 June 2021
Forecast type: TEMPORARY: The following changes expected for less than half the time period
Winds: from the WNW (290 degrees) at 16 MPH (14 knots; 7.2 m/s)
gusting to 26 MPH (23 knots; 11.8 m/s)
Visibility: missing
Ceiling: unknown
Clouds: missing
Weather: no significant weather forecast for this period

 AIRPORT MAP

 RUNWAY INFORMATION

 AIRPORT FREQUENCIES
Type TWR Name TWR Frequency 118.7 MHZ

 AIRPORT NEAR NAVIGATION AIDS
Type NDB Name Shymkent Frequency 360 KHZ
Type NDB Name Shymkent Frequency 360 KHZ



2018 Air Astana Virtual Airline